Time;durP1;ratioP1;P1;durP2;ratioP2;P2;SDS_P1;SDS_P2;PMS_P1;PMS_P2;Temp;Humidity;BMP_temperature;BMP_pressure;BME280_temperature;BME280_humidity;BME280_pressure;Samples;Min_cycle;Max_cycle;Signal;HPM_P1;HPM_P2
2021/12/25 00:00:14;;;;;;;;;;;22.50;47.10;;;;;;5136353;27;19924;-50
2021/12/25 00:02:42;;;;;;;;;;;22.50;47.10;;;;;;5134294;27;20332;-49
2021/12/25 00:05:11;;;;;;;;;;;22.50;47.10;;;;;;5135860;27;19923;-52
2021/12/25 00:07:38;;;;;;;;;;;22.50;47.20;;;;;;5135863;27;20432;-54
2021/12/25 00:10:06;;;;;;;;;;;22.50;47.20;;;;;;5135864;27;19977;-54
2021/12/25 00:12:33;;;;;;;;;;;22.50;47.10;;;;;;5136110;27;19968;-54
2021/12/25 00:15:00;;;;;;;;;;;22.50;47.10;;;;;;5135763;27;19923;-55
2021/12/25 00:17:27;;;;;;;;;;;22.50;47.10;;;;;;5130421;27;20333;-53
2021/12/25 00:19:54;;;;;;;;;;;22.40;47.10;;;;;;5097062;28;19973;-48
2021/12/25 00:22:21;;;;;;;;;;;22.40;47.10;;;;;;5114635;28;19977;-55
2021/12/25 00:24:48;;;;;;;;;;;22.40;47.10;;;;;;5115290;28;20014;-53
2021/12/25 00:30:11;;;;;;;;;;;22.40;47.10;;;;;;5114882;28;19972;-54
2021/12/25 00:33:34;;;;;;;;;;;22.40;47.10;;;;;;5120629;27;20390;-48
2021/12/25 00:35:28;;;;;;;;;;;22.40;47.10;;;;;;5127519;27;19984;-56
2021/12/25 00:37:55;;;;;;;;;;;22.40;47.20;;;;;;5135631;27;19976;-55
2021/12/25 00:40:23;;;;;;;;;;;22.40;47.20;;;;;;5136155;27;19923;-52
2021/12/25 00:42:50;;;;;;;;;;;22.40;47.20;;;;;;5135257;27;20439;-56
2021/12/25 00:45:17;;;;;;;;;;;22.40;47.20;;;;;;5135421;27;20331;-56
2021/12/25 00:47:44;;;;;;;;;;;22.40;47.20;;;;;;5133545;27;19939;-53
2021/12/25 00:50:11;;;;;;;;;;;22.40;47.20;;;;;;5135697;27;19927;-51
2021/12/25 00:52:38;;;;;;;;;;;22.40;47.20;;;;;;5134899;27;20379;-57
2021/12/25 00:55:07;;;;;;;;;;;22.40;47.20;;;;;;5135362;27;19923;-50
2021/12/25 00:57:34;;;;;;;;;;;22.40;47.20;;;;;;5135323;27;20333;-55
2021/12/25 01:00:07;;;;;;;;;;;22.40;47.20;;;;;;5135163;27;19992;-54
2021/12/25 01:02:34;;;;;;;;;;;22.40;47.20;;;;;;5133106;27;19943;-53
2021/12/25 01:05:01;;;;;;;;;;;22.40;47.20;;;;;;5114601;28;19924;-52
2021/12/25 01:07:28;;;;;;;;;;;22.40;47.20;;;;;;5114335;28;19986;-50
2021/12/25 01:09:55;;;;;;;;;;;22.40;47.20;;;;;;5114600;28;19924;-56
2021/12/25 01:12:22;;;;;;;;;;;22.30;47.20;;;;;;5114247;28;20428;-51
2021/12/25 01:14:56;;;;;;;;;;;22.40;47.20;;;;;;5114272;28;19923;-51
2021/12/25 01:29:16;;;;;;;;;;;22.40;47.30;;;;;;5136971;27;19985;-47
2021/12/25 01:34:00;;;;;;;;;;;22.30;47.20;;;;;;5137451;27;19931;-54
2021/12/25 01:36:47;;;;;;;;;;;22.30;47.20;;;;;;5139252;27;19970;-54
2021/12/25 01:39:29;;;;;;;;;;;22.40;47.30;;;;;;5139174;27;19977;-53
2021/12/25 01:42:07;;;;;;;;;;;22.40;47.20;;;;;;5138804;27;19924;-57
2021/12/25 01:50:07;;;;;;;;;;;22.30;47.20;;;;;;5135270;27;19968;-48
2021/12/25 01:52:34;;;;;;;;;;;22.30;47.20;;;;;;5138752;27;19974;-50
2021/12/25 01:55:03;;;;;;;;;;;22.30;47.20;;;;;;5138827;27;20271;-51
2021/12/25 01:57:31;;;;;;;;;;;22.30;47.20;;;;;;5138451;27;19970;-52
2021/12/25 01:59:58;;;;;;;;;;;22.30;47.20;;;;;;5138272;27;19953;-49
2021/12/25 02:02:26;;;;;;;;;;;22.30;47.20;;;;;;5138658;27;19923;-54
2021/12/25 02:04:53;;;;;;;;;;;22.30;47.20;;;;;;5119324;27;19963;-50
2021/12/25 02:07:20;;;;;;;;;;;22.30;47.20;;;;;;5117685;28;20444;-57
2021/12/25 02:09:48;;;;;;;;;;;22.30;47.20;;;;;;5118540;28;19924;-57
2021/12/25 02:12:16;;;;;;;;;;;22.30;47.20;;;;;;5117915;28;20325;-53
2021/12/25 02:14:45;;;;;;;;;;;22.30;47.20;;;;;;5117562;28;20387;-55
2021/12/25 02:19:49;;;;;;;;;;;22.30;47.20;;;;;;5131554;27;19923;-53
2021/12/25 02:22:18;;;;;;;;;;;22.30;47.20;;;;;;5137802;27;19928;-55
2021/12/25 02:24:46;;;;;;;;;;;22.30;47.20;;;;;;5138277;27;19923;-53
2021/12/25 02:27:13;;;;;;;;;;;22.30;47.20;;;;;;5138995;27;19931;-53
2021/12/25 02:29:40;;;;;;;;;;;22.30;47.20;;;;;;5138033;27;19923;-53
2021/12/25 02:32:07;;;;;;;;;;;22.30;47.20;;;;;;5138121;27;20321;-52
2021/12/25 02:34:34;;;;;;;;;;;22.30;47.20;;;;;;5136348;27;19927;-55
2021/12/25 02:37:02;;;;;;;;;;;22.30;47.20;;;;;;5137704;27;19959;-50
2021/12/25 02:39:28;;;;;;;;;;;22.30;47.20;;;;;;5137066;27;19976;-52
2021/12/25 02:41:55;;;;;;;;;;;22.30;47.20;;;;;;5137589;27;19953;-54
2021/12/25 02:44:23;;;;;;;;;;;22.30;47.20;;;;;;5138743;27;20328;-56
2021/12/25 02:46:54;;;;;;;;;;;22.30;47.20;;;;;;5137751;27;19923;-50
2021/12/25 02:49:23;;;;;;;;;;;22.30;47.20;;;;;;5135757;27;19923;-55
2021/12/25 02:51:52;;;;;;;;;;;22.30;47.20;;;;;;5137738;27;19924;-53
2021/12/25 02:54:19;;;;;;;;;;;22.20;47.20;;;;;;5137574;27;20010;-57
2021/12/25 02:56:46;;;;;;;;;;;22.20;47.20;;;;;;5137649;27;20065;-58
2021/12/25 02:59:15;;;;;;;;;;;22.20;47.20;;;;;;5137479;27;19924;-56
2021/12/25 03:02:09;;;;;;;;;;;22.20;47.20;;;;;;5137593;27;19951;-56
2021/12/25 03:04:37;;;;;;;;;;;22.20;47.20;;;;;;5129334;27;19923;-55
2021/12/25 03:07:04;;;;;;;;;;;22.20;47.20;;;;;;5116794;28;19977;-51
2021/12/25 03:09:32;;;;;;;;;;;22.20;47.20;;;;;;5116534;28;20012;-53
2021/12/25 03:11:59;;;;;;;;;;;22.20;47.20;;;;;;5116459;28;19924;-56
2021/12/25 03:14:36;;;;;;;;;;;22.20;47.20;;;;;;5116721;28;19927;-55
2021/12/25 03:17:04;;;;;;;;;;;22.20;47.20;;;;;;5116411;28;19969;-55
2021/12/25 03:19:32;;;;;;;;;;;22.20;47.20;;;;;;5118067;27;19977;-50
2021/12/25 03:22:01;;;;;;;;;;;22.20;47.20;;;;;;5116089;28;19960;-51
2021/12/25 03:24:28;;;;;;;;;;;22.20;47.20;;;;;;5116303;28;20372;-51
2021/12/25 03:26:56;;;;;;;;;;;22.20;47.20;;;;;;5116117;28;20447;-47
2021/12/25 03:29:24;;;;;;;;;;;22.20;47.20;;;;;;5116336;28;19963;-55
2021/12/25 03:31:51;;;;;;;;;;;22.20;47.20;;;;;;5116411;28;19923;-51
2021/12/25 03:34:19;;;;;;;;;;;22.20;47.20;;;;;;5114863;27;19976;-50
2021/12/25 03:36:46;;;;;;;;;;;22.20;47.20;;;;;;5116011;28;19923;-53
2021/12/25 03:39:14;;;;;;;;;;;22.20;47.20;;;;;;5115955;28;19928;-54
2021/12/25 03:41:41;;;;;;;;;;;22.20;47.20;;;;;;5116127;28;19945;-52
2021/12/25 03:44:09;;;;;;;;;;;22.20;47.20;;;;;;5115843;28;19931;-55
2021/12/25 03:46:39;;;;;;;;;;;22.20;47.20;;;;;;5115738;28;19970;-58
2021/12/25 03:49:13;;;;;;;;;;;22.20;47.20;;;;;;5117130;27;19923;-51
2021/12/25 04:00:01;;;;;;;;;;;22.20;47.30;;;;;;5136350;27;20022;-53
2021/12/25 04:02:35;;;;;;;;;;;22.20;47.30;;;;;;5136390;27;20343;-55
2021/12/25 04:05:04;;;;;;;;;;;22.10;47.20;;;;;;5134603;27;19924;-53
2021/12/25 04:10:18;;;;;;;;;;;22.20;47.30;;;;;;5135912;27;20382;-54
2021/12/25 04:12:46;;;;;;;;;;;22.10;47.20;;;;;;5135840;27;19968;-49
2021/12/25 04:15:13;;;;;;;;;;;22.10;47.20;;;;;;5136099;27;20363;-54
2021/12/25 04:17:40;;;;;;;;;;;22.10;47.20;;;;;;5135727;27;19923;-56
2021/12/25 04:20:07;;;;;;;;;;;22.10;47.20;;;;;;5134238;27;19950;-58
2021/12/25 04:22:44;;;;;;;;;;;22.10;47.20;;;;;;5135525;27;19959;-50
2021/12/25 04:25:12;;;;;;;;;;;22.10;47.20;;;;;;5135930;27;19927;-51
2021/12/25 04:27:39;;;;;;;;;;;22.10;47.20;;;;;;5135793;27;19924;-49
2021/12/25 04:30:19;;;;;;;;;;;22.10;47.20;;;;;;5135360;27;19923;-49
2021/12/25 05:03:36;;;;;;;;;;;22.10;47.20;;;;;;5051430;28;19925;-51
2021/12/25 05:05:48;;;;;;;;;;;22.10;47.30;;;;;;5048168;28;19936;-57
2021/12/25 05:08:15;;;;;;;;;;;22.10;47.30;;;;;;5052000;28;19971;-48
2021/12/25 05:10:42;;;;;;;;;;;22.10;47.30;;;;;;5051729;28;19998;-56
2021/12/25 05:13:09;;;;;;;;;;;22.10;47.30;;;;;;5100939;28;19959;-58
2021/12/25 05:15:36;;;;;;;;;;;22.10;47.30;;;;;;5114599;28;19924;-57
2021/12/25 05:18:05;;;;;;;;;;;22.10;47.30;;;;;;5114552;28;19924;-52
2021/12/25 05:20:32;;;;;;;;;;;22.10;47.30;;;;;;5118584;27;19927;-56
2021/12/25 05:22:59;;;;;;;;;;;22.10;47.30;;;;;;5116344;27;20026;-55
2021/12/25 05:25:26;;;;;;;;;;;22.10;47.30;;;;;;5134916;27;19971;-57
2021/12/25 05:27:53;;;;;;;;;;;22.10;47.30;;;;;;5134914;28;19968;-57
2021/12/25 05:30:20;;;;;;;;;;;22.00;47.20;;;;;;5134863;28;20319;-57
2021/12/25 05:32:47;;;;;;;;;;;22.00;47.20;;;;;;5134627;28;19927;-52
2021/12/25 05:35:14;;;;;;;;;;;22.10;47.30;;;;;;5134216;28;19924;-53
2021/12/25 05:37:41;;;;;;;;;;;22.00;47.20;;;;;;5133897;28;19976;-56
2021/12/25 05:40:08;;;;;;;;;;;22.00;47.20;;;;;;5134849;28;19970;-55
2021/12/25 05:42:35;;;;;;;;;;;22.10;47.30;;;;;;5134850;28;19928;-56
2021/12/25 05:45:02;;;;;;;;;;;22.00;47.20;;;;;;5134509;28;20391;-52
2021/12/25 05:47:29;;;;;;;;;;;22.00;47.20;;;;;;5134424;28;19924;-57
2021/12/25 05:49:56;;;;;;;;;;;22.00;47.20;;;;;;5134773;28;19931;-55
2021/12/25 05:52:23;;;;;;;;;;;22.00;47.20;;;;;;5116226;28;20433;-50
2021/12/25 05:54:51;;;;;;;;;;;22.00;47.20;;;;;;5114183;28;20019;-56
2021/12/25 05:57:18;;;;;;;;;;;22.00;47.20;;;;;;5113822;28;19923;-56
2021/12/25 05:59:45;;;;;;;;;;;22.00;47.20;;;;;;5113743;28;19973;-56
2021/12/25 06:02:12;;;;;;;;;;;22.00;47.20;;;;;;5114689;28;19923;-51
2021/12/25 06:04:40;;;;;;;;;;;22.00;47.20;;;;;;5113788;28;19973;-58
2021/12/25 06:07:07;;;;;;;;;;;22.00;47.20;;;;;;5127741;28;20014;-54
2021/12/25 06:09:34;;;;;;;;;;;22.00;47.20;;;;;;5134275;28;19978;-52
2021/12/25 06:12:01;;;;;;;;;;;22.00;47.20;;;;;;5134573;28;19924;-57
2021/12/25 06:14:28;;;;;;;;;;;22.00;47.20;;;;;;5135548;27;19975;-51
2021/12/25 06:16:56;;;;;;;;;;;22.00;47.20;;;;;;5138384;27;19992;-55
2021/12/25 06:19:25;;;;;;;;;;;22.00;47.20;;;;;;5138365;27;19930;-55
2021/12/25 06:21:51;;;;;;;;;;;22.00;47.20;;;;;;5117809;27;19973;-53
2021/12/25 06:24:20;;;;;;;;;;;22.00;47.20;;;;;;5138078;27;19973;-54
2021/12/25 06:26:47;;;;;;;;;;;22.00;47.20;;;;;;5138165;27;19928;-55
2021/12/25 06:29:19;;;;;;;;;;;22.00;47.20;;;;;;5137842;27;19978;-58
2021/12/25 06:31:47;;;;;;;;;;;22.00;47.20;;;;;;5137882;27;19923;-54
2021/12/25 06:34:14;;;;;;;;;;;22.00;47.20;;;;;;5138118;27;19930;-53
2021/12/25 06:36:41;;;;;;;;;;;22.00;47.20;;;;;;5136449;27;19923;-50
2021/12/25 06:39:13;;;;;;;;;;;22.00;47.20;;;;;;5137980;27;19923;-48
2021/12/25 06:41:41;;;;;;;;;;;22.00;47.20;;;;;;5137967;27;20024;-55
2021/12/25 06:44:08;;;;;;;;;;;22.00;47.30;;;;;;5137561;27;20375;-57
2021/12/25 06:46:36;;;;;;;;;;;22.00;47.30;;;;;;5137486;27;19966;-52
2021/12/25 06:49:03;;;;;;;;;;;22.00;47.20;;;;;;5137809;27;19953;-49
2021/12/25 06:51:34;;;;;;;;;;;22.00;47.20;;;;;;5136127;27;19927;-53
2021/12/25 06:54:02;;;;;;;;;;;22.00;47.20;;;;;;5137237;27;20440;-52
2021/12/25 06:56:29;;;;;;;;;;;22.00;47.20;;;;;;5137337;27;19996;-57
2021/12/25 06:58:56;;;;;;;;;;;22.00;47.20;;;;;;5138210;27;19969;-55
2021/12/25 07:01:23;;;;;;;;;;;22.00;47.30;;;;;;5137598;27;19976;-57
2021/12/25 07:03:50;;;;;;;;;;;22.00;47.20;;;;;;5137233;27;19923;-56
2021/12/25 07:06:17;;;;;;;;;;;22.00;47.30;;;;;;5135310;27;19936;-57
2021/12/25 07:08:44;;;;;;;;;;;22.00;47.30;;;;;;5137159;27;19924;-47
2021/12/25 07:11:11;;;;;;;;;;;22.00;47.30;;;;;;5137923;27;19923;-50
2021/12/25 07:13:42;;;;;;;;;;;22.00;47.30;;;;;;5137348;27;19930;-57
2021/12/25 07:16:10;;;;;;;;;;;22.00;47.30;;;;;;5137029;27;20446;-56
2021/12/25 07:18:37;;;;;;;;;;;22.00;47.30;;;;;;5136926;27;20393;-51
2021/12/25 07:21:04;;;;;;;;;;;22.00;47.30;;;;;;5137184;27;20323;-53
2021/12/25 07:23:32;;;;;;;;;;;22.00;47.30;;;;;;5115179;28;20268;-48
2021/12/25 07:26:00;;;;;;;;;;;22.00;47.30;;;;;;5116182;28;19924;-49
2021/12/25 07:28:28;;;;;;;;;;;22.00;47.20;;;;;;5116005;28;19931;-46
2021/12/25 07:30:58;;;;;;;;;;;22.00;47.30;;;;;;5116469;28;19937;-47
2021/12/25 07:33:25;;;;;;;;;;;22.00;47.20;;;;;;5116427;28;20336;-48
2021/12/25 07:35:53;;;;;;;;;;;22.00;47.20;;;;;;5116051;28;19924;-53
2021/12/25 07:38:20;;;;;;;;;;;22.00;47.30;;;;;;5132291;27;19975;-55
2021/12/25 07:40:47;;;;;;;;;;;22.00;47.20;;;;;;5136478;27;20030;-53
2021/12/25 07:43:15;;;;;;;;;;;22.00;47.20;;;;;;5136757;27;19923;-50
2021/12/25 07:45:42;;;;;;;;;;;22.00;47.30;;;;;;5136394;27;19923;-53
2021/12/25 07:48:09;;;;;;;;;;;22.00;47.30;;;;;;5136289;27;19974;-52
2021/12/25 07:50:36;;;;;;;;;;;22.00;47.30;;;;;;5136626;27;20275;-52
2021/12/25 07:53:03;;;;;;;;;;;22.00;47.30;;;;;;5134248;27;20418;-52
2021/12/25 07:55:31;;;;;;;;;;;22.00;47.20;;;;;;5136522;27;19963;-55
2021/12/25 07:58:03;;;;;;;;;;;22.00;47.30;;;;;;5136488;27;19930;-50
2021/12/25 08:00:30;;;;;;;;;;;22.00;47.20;;;;;;5136276;27;19972;-55
2021/12/25 08:02:57;;;;;;;;;;;22.00;47.90;;;;;;5136081;27;20375;-55
2021/12/25 08:05:24;;;;;;;;;;;22.00;47.20;;;;;;5136075;27;19923;-54
2021/12/25 08:07:51;;;;;;;;;;;22.00;47.20;;;;;;5134448;27;19963;-58
2021/12/25 08:10:20;;;;;;;;;;;22.00;47.20;;;;;;5135901;27;19927;-58
2021/12/25 08:12:48;;;;;;;;;;;22.00;47.20;;;;;;5135853;27;19973;-51
2021/12/25 08:15:16;;;;;;;;;;;22.00;47.20;;;;;;5136103;27;19966;-47
2021/12/25 08:17:44;;;;;;;;;;;22.00;47.20;;;;;;5136077;27;20010;-54
2021/12/25 08:20:14;;;;;;;;;;;22.00;47.20;;;;;;5137536;27;20022;-47
2021/12/25 08:22:41;;;;;;;;;;;22.00;47.10;;;;;;5126881;27;20321;-46
2021/12/25 08:25:09;;;;;;;;;;;22.00;47.10;;;;;;5097360;28;19931;-52
2021/12/25 08:27:37;;;;;;;;;;;22.00;47.10;;;;;;5115267;28;19947;-49
2021/12/25 08:30:07;;;;;;;;;;;22.00;47.10;;;;;;5115364;28;19965;-57
2021/12/25 08:32:33;;;;;;;;;;;22.00;47.10;;;;;;5114913;28;20022;-56
2021/12/25 08:35:00;;;;;;;;;;;22.00;47.10;;;;;;5115104;28;19923;-57
2021/12/25 08:37:27;;;;;;;;;;;22.00;47.10;;;;;;5113668;27;19927;-57
2021/12/25 08:39:55;;;;;;;;;;;22.00;47.10;;;;;;5114802;28;20015;-55
2021/12/25 08:42:23;;;;;;;;;;;22.00;47.10;;;;;;5115061;28;19924;-57
2021/12/25 08:47:27;;;;;;;;;;;22.00;47.10;;;;;;5114910;28;19928;-56
2021/12/25 08:49:54;;;;;;;;;;;22.00;47.10;;;;;;5114939;28;19924;-55
2021/12/25 08:52:24;;;;;;;;;;;22.10;47.10;;;;;;5115044;27;19927;-54
2021/12/25 08:54:51;;;;;;;;;;;22.10;47.10;;;;;;5114864;28;19928;-54
2021/12/25 08:57:24;;;;;;;;;;;22.10;47.10;;;;;;5114919;28;19962;-54
2021/12/25 08:59:51;;;;;;;;;;;22.10;47.10;;;;;;5114368;28;19927;-59
2021/12/25 09:02:19;;;;;;;;;;;22.10;47.00;;;;;;5114750;28;19932;-51
2021/12/25 09:04:47;;;;;;;;;;;22.10;47.00;;;;;;5114675;28;20442;-56
2021/12/25 09:07:14;;;;;;;;;;;22.10;47.00;;;;;;5113819;28;19924;-51
2021/12/25 09:09:41;;;;;;;;;;;22.10;47.00;;;;;;5114181;28;19999;-56
2021/12/25 09:12:11;;;;;;;;;;;22.10;47.00;;;;;;5114617;28;19967;-56
2021/12/25 09:14:38;;;;;;;;;;;22.10;47.00;;;;;;5114270;28;20417;-51
2021/12/25 09:17:07;;;;;;;;;;;22.10;46.90;;;;;;5114826;28;20325;-49
2021/12/25 09:19:35;;;;;;;;;;;22.10;46.90;;;;;;5114259;28;19978;-47
2021/12/25 09:22:02;;;;;;;;;;;22.10;46.90;;;;;;5113978;28;19994;-52
2021/12/25 09:24:29;;;;;;;;;;;22.10;46.90;;;;;;5113710;28;19928;-52
2021/12/25 09:26:57;;;;;;;;;;;22.10;46.90;;;;;;5114089;28;19973;-48
2021/12/25 09:29:24;;;;;;;;;;;22.20;46.90;;;;;;5114330;28;19954;-47
2021/12/25 09:31:51;;;;;;;;;;;22.20;46.90;;;;;;5114406;28;19928;-55
2021/12/25 09:34:18;;;;;;;;;;;22.20;46.80;;;;;;5114060;28;19924;-57
2021/12/25 09:36:46;;;;;;;;;;;22.20;46.80;;;;;;5114066;28;20018;-52
2021/12/25 09:39:13;;;;;;;;;;;22.20;46.80;;;;;;5095552;28;19923;-56
2021/12/25 09:41:40;;;;;;;;;;;22.20;46.80;;;;;;5114314;28;20295;-52
2021/12/25 09:44:07;;;;;;;;;;;22.20;46.80;;;;;;5114335;28;20287;-52
2021/12/25 09:46:34;;;;;;;;;;;22.20;46.80;;;;;;5113995;28;19970;-51
2021/12/25 09:49:02;;;;;;;;;;;22.20;46.70;;;;;;5116249;28;19924;-48
2021/12/25 09:51:29;;;;;;;;;;;22.30;46.80;;;;;;5118376;28;20287;-50
2021/12/25 09:54:04;;;;;;;;;;;22.30;46.80;;;;;;5116935;27;20011;-47
2021/12/25 09:56:32;;;;;;;;;;;22.30;46.80;;;;;;5100548;28;19946;-48
2021/12/25 09:58:59;;;;;;;;;;;22.30;46.80;;;;;;5117762;28;20022;-49
2021/12/25 10:01:40;;;;;;;;;;;22.30;46.80;;;;;;5118193;28;20007;-50
2021/12/25 10:04:08;;;;;;;;;;;22.30;46.70;;;;;;5118146;28;20432;-48
2021/12/25 10:06:40;;;;;;;;;;;22.30;46.70;;;;;;5118066;28;19975;-51
2021/12/25 10:09:25;;;;;;;;;;;22.30;46.70;;;;;;5116913;27;20448;-51
2021/12/25 10:12:06;;;;;;;;;;;22.30;46.70;;;;;;5117707;28;19973;-51
2021/12/25 10:14:39;;;;;;;;;;;22.30;46.70;;;;;;5117660;28;20349;-55
2021/12/25 10:17:15;;;;;;;;;;;22.30;46.70;;;;;;5117592;28;20006;-55
2021/12/25 10:19:42;;;;;;;;;;;22.30;46.70;;;;;;5117868;28;19924;-50
2021/12/25 10:22:11;;;;;;;;;;;22.40;46.80;;;;;;5118001;28;20014;-55
2021/12/25 10:24:50;;;;;;;;;;;22.40;46.80;;;;;;5116842;27;19962;-49
2021/12/25 10:27:19;;;;;;;;;;;22.40;46.80;;;;;;5117345;28;20432;-53
2021/12/25 10:29:47;;;;;;;;;;;22.40;46.80;;;;;;5117204;28;19923;-56
2021/12/25 10:32:17;;;;;;;;;;;22.40;46.80;;;;;;5117612;28;20352;-56
2021/12/25 10:34:44;;;;;;;;;;;22.40;46.80;;;;;;5117281;28;20424;-55
2021/12/25 10:37:13;;;;;;;;;;;22.40;46.80;;;;;;5117205;28;19924;-52
2021/12/25 10:39:40;;;;;;;;;;;22.40;46.80;;;;;;5115990;27;19976;-51
2021/12/25 10:42:14;;;;;;;;;;;22.40;46.80;;;;;;5117070;28;19973;-58
2021/12/25 10:44:42;;;;;;;;;;;22.40;46.80;;;;;;5117069;28;19974;-55
2021/12/25 10:47:14;;;;;;;;;;;22.40;46.80;;;;;;5117266;28;19932;-53
2021/12/25 10:49:46;;;;;;;;;;;22.40;46.80;;;;;;5117296;28;19924;-56
2021/12/25 10:52:20;;;;;;;;;;;22.40;46.80;;;;;;5117044;28;19931;-51
2021/12/25 10:54:53;;;;;;;;;;;22.40;46.80;;;;;;5116046;27;20294;-54
2021/12/25 10:57:30;;;;;;;;;;;22.40;46.80;;;;;;5117120;28;19927;-52
2021/12/25 10:59:58;;;;;;;;;;;22.40;46.70;;;;;;5116151;28;19951;-55
2021/12/25 11:02:31;;;;;;;;;;;22.40;46.80;;;;;;5117046;28;19924;-48
2021/12/25 11:04:59;;;;;;;;;;;22.40;46.80;;;;;;5117001;28;19977;-57
2021/12/25 11:07:26;;;;;;;;;;;22.40;46.80;;;;;;5116564;28;19924;-50
2021/12/25 11:10:07;;;;;;;;;;;22.40;46.80;;;;;;5115693;27;20021;-50
2021/12/25 11:12:35;;;;;;;;;;;22.40;46.80;;;;;;5116535;28;20014;-57
2021/12/25 11:15:32;;;;;;;;;;;22.40;46.80;;;;;;5116475;28;20405;-54
2021/12/25 11:18:07;;;;;;;;;;;22.40;46.80;;;;;;5115022;28;19928;-52
2021/12/25 11:20:38;;;;;;;;;;;22.40;46.80;;;;;;5116703;28;19946;-52
2021/12/25 11:23:10;;;;;;;;;;;22.40;46.80;;;;;;5116145;28;20343;-57
2021/12/25 11:25:38;;;;;;;;;;;22.50;46.80;;;;;;5115410;27;20010;-54
2021/12/25 11:28:07;;;;;;;;;;;22.50;46.80;;;;;;5116173;28;19924;-50
2021/12/25 11:30:35;;;;;;;;;;;22.50;46.80;;;;;;5116152;28;19924;-54
2021/12/25 11:33:02;;;;;;;;;;;22.50;46.70;;;;;;5116147;28;20375;-49
2021/12/25 11:35:33;;;;;;;;;;;22.50;46.60;;;;;;5116059;28;20014;-51
2021/12/25 11:38:02;;;;;;;;;;;22.60;46.70;;;;;;5116057;28;20375;-58
2021/12/25 11:40:32;;;;;;;;;;;22.60;46.60;;;;;;5114999;28;19928;-55
2021/12/25 11:43:02;;;;;;;;;;;22.60;46.50;;;;;;5115914;28;19927;-54
2021/12/25 11:45:36;;;;;;;;;;;22.60;46.50;;;;;;5115872;28;19973;-55
2021/12/25 11:48:17;;;;;;;;;;;22.70;46.60;;;;;;5115744;28;19924;-57
2021/12/25 11:50:46;;;;;;;;;;;22.70;46.60;;;;;;5116065;28;20295;-52
2021/12/25 11:58:39;;;;;;;;;;;22.70;46.50;;;;;;5115488;28;19969;-57
2021/12/25 12:01:23;;;;;;;;;;;22.70;46.50;;;;;;5115851;28;19924;-52
2021/12/25 12:03:54;;;;;;;;;;;22.70;46.50;;;;;;5115825;28;19980;-53
2021/12/25 12:06:40;;;;;;;;;;;22.70;46.50;;;;;;5116639;28;20366;-51
2021/12/25 12:09:10;;;;;;;;;;;22.70;46.50;;;;;;5115615;28;19924;-51
2021/12/25 12:11:40;;;;;;;;;;;22.70;46.50;;;;;;5113986;28;20003;-53
2021/12/25 12:14:19;;;;;;;;;;;22.80;46.60;;;;;;5116598;28;19923;-47
2021/12/25 12:16:56;;;;;;;;;;;22.80;46.60;;;;;;5115259;28;20046;-53
2021/12/25 12:19:29;;;;;;;;;;;22.80;46.60;;;;;;5115221;28;19974;-55
2021/12/25 12:22:00;;;;;;;;;;;22.80;46.60;;;;;;5114984;28;19978;-52
2021/12/25 12:24:48;;;;;;;;;;;22.80;46.60;;;;;;5114350;28;19977;-55
2021/12/25 12:27:30;;;;;;;;;;;22.80;46.60;;;;;;5115411;28;19924;-50
2021/12/25 12:29:57;;;;;;;;;;;22.80;46.60;;;;;;5115293;28;19973;-57
2021/12/25 12:32:43;;;;;;;;;;;22.80;46.60;;;;;;5114973;28;19969;-57
2021/12/25 12:35:30;;;;;;;;;;;22.80;46.60;;;;;;5115256;28;20075;-53
2021/12/25 12:38:16;;;;;;;;;;;22.80;46.70;;;;;;5114875;28;19930;-50
2021/12/25 12:40:43;;;;;;;;;;;22.80;46.70;;;;;;5114039;28;20369;-52
2021/12/25 12:43:13;;;;;;;;;;;22.80;46.70;;;;;;5115077;28;20077;-56
2021/12/25 12:45:51;;;;;;;;;;;22.80;46.70;;;;;;5114769;28;20022;-55
2021/12/25 12:48:20;;;;;;;;;;;22.80;46.70;;;;;;5114606;28;19923;-50
2021/12/25 12:50:58;;;;;;;;;;;22.80;46.70;;;;;;5114960;28;19923;-56
2021/12/25 12:53:25;;;;;;;;;;;22.80;46.80;;;;;;5114721;28;19923;-52
2021/12/25 12:55:53;;;;;;;;;;;22.80;46.80;;;;;;5113406;28;20015;-55
2021/12/25 12:58:22;;;;;;;;;;;22.80;46.80;;;;;;5114417;28;19974;-55
2021/12/25 13:00:50;;;;;;;;;;;22.80;46.80;;;;;;5115882;28;19927;-45
2021/12/25 13:03:18;;;;;;;;;;;22.80;46.80;;;;;;5114731;28;20002;-57
2021/12/25 13:05:53;;;;;;;;;;;22.80;46.80;;;;;;5114746;28;19923;-51
2021/12/25 13:08:22;;;;;;;;;;;22.80;46.80;;;;;;5114350;28;20014;-51
2021/12/25 13:10:52;;;;;;;;;;;22.80;46.80;;;;;;5113478;28;20019;-48
2021/12/25 13:13:21;;;;;;;;;;;22.80;46.80;;;;;;5114304;28;19935;-53
2021/12/25 13:15:49;;;;;;;;;;;22.80;46.80;;;;;;5114595;28;19959;-55
2021/12/25 13:18:17;;;;;;;;;;;22.80;46.90;;;;;;5114484;28;19967;-57
2021/12/25 13:20:44;;;;;;;;;;;22.80;46.90;;;;;;5114550;28;19959;-48
2021/12/25 13:23:12;;;;;;;;;;;22.80;47.00;;;;;;5113363;28;19923;-53
2021/12/25 13:25:47;;;;;;;;;;;22.80;46.90;;;;;;5113248;28;20336;-55
2021/12/25 13:28:15;;;;;;;;;;;22.80;46.90;;;;;;5114906;28;20427;-54
2021/12/25 13:30:47;;;;;;;;;;;22.80;46.90;;;;;;5114431;28;20347;-55
2021/12/25 13:33:16;;;;;;;;;;;22.80;46.90;;;;;;5114132;28;19975;-52
2021/12/25 13:35:42;;;;;;;;;;;22.80;47.00;;;;;;5114412;28;20350;-49
2021/12/25 13:38:14;;;;;;;;;;;22.80;47.00;;;;;;5114073;28;19924;-53
2021/12/25 13:40:48;;;;;;;;;;;22.80;47.60;;;;;;5113112;28;20276;-57
2021/12/25 13:43:15;;;;;;;;;;;22.80;47.00;;;;;;5114309;28;20007;-53
2021/12/25 13:45:43;;;;;;;;;;;22.80;47.10;;;;;;5114319;28;19963;-51
2021/12/25 13:48:10;;;;;;;;;;;22.80;47.10;;;;;;5113843;28;19927;-55
2021/12/25 13:50:39;;;;;;;;;;;22.80;47.10;;;;;;5113928;28;20391;-50
2021/12/25 13:53:19;;;;;;;;;;;22.80;47.10;;;;;;5114115;28;19928;-56
2021/12/25 13:55:50;;;;;;;;;;;22.80;47.20;;;;;;5112765;28;20402;-51
2021/12/25 13:58:17;;;;;;;;;;;22.80;47.20;;;;;;5113787;28;19924;-56
2021/12/25 14:00:48;;;;;;;;;;;22.80;47.20;;;;;;5114168;28;19924;-52
2021/12/25 14:03:17;;;;;;;;;;;22.80;47.20;;;;;;5114192;28;19923;-50
2021/12/25 14:05:46;;;;;;;;;;;22.70;47.20;;;;;;5114093;28;19955;-54
2021/12/25 14:08:13;;;;;;;;;;;22.80;47.30;;;;;;5113699;28;19986;-49
2021/12/25 14:10:42;;;;;;;;;;;22.80;47.30;;;;;;5112846;28;19969;-56
2021/12/25 14:13:16;;;;;;;;;;;22.80;47.30;;;;;;5113687;28;19928;-46
2021/12/25 14:15:44;;;;;;;;;;;22.80;47.30;;;;;;5113737;28;19953;-58
2021/12/25 14:18:11;;;;;;;;;;;22.80;47.30;;;;;;5113995;28;19931;-56
2021/12/25 14:20:39;;;;;;;;;;;22.80;47.30;;;;;;5113967;28;19967;-49
2021/12/25 14:23:18;;;;;;;;;;;22.70;47.30;;;;;;5113407;28;19924;-46
2021/12/25 14:25:52;;;;;;;;;;;22.80;47.40;;;;;;5112451;28;20474;-47
2021/12/25 14:28:21;;;;;;;;;;;22.80;47.40;;;;;;5113436;28;19924;-54
2021/12/25 14:31:00;;;;;;;;;;;22.80;47.40;;;;;;5114783;28;19923;-52
2021/12/25 14:33:28;;;;;;;;;;;22.80;47.40;;;;;;5113565;28;20440;-47
2021/12/25 14:35:55;;;;;;;;;;;22.80;47.40;;;;;;5115454;28;20431;-54
2021/12/25 14:38:22;;;;;;;;;;;22.80;47.40;;;;;;5117236;28;19930;-51
2021/12/25 14:40:50;;;;;;;;;;;22.70;47.30;;;;;;5116684;27;19924;-58
2021/12/25 14:43:27;;;;;;;;;;;22.70;47.40;;;;;;5117316;28;19923;-52
2021/12/25 14:45:54;;;;;;;;;;;22.70;47.40;;;;;;5117429;28;19923;-53
2021/12/25 14:48:33;;;;;;;;;;;22.70;47.40;;;;;;5117287;28;19924;-52
2021/12/25 14:51:03;;;;;;;;;;;22.70;47.40;;;;;;5118125;28;20282;-53
2021/12/25 14:53:30;;;;;;;;;;;22.70;47.40;;;;;;5117052;28;20007;-56
2021/12/25 14:56:00;;;;;;;;;;;22.70;47.50;;;;;;5116443;28;20432;-55
2021/12/25 14:58:29;;;;;;;;;;;22.70;47.50;;;;;;5137044;27;19924;-53
2021/12/25 15:01:02;;;;;;;;;;;22.70;47.50;;;;;;5137673;27;19966;-55
2021/12/25 15:03:29;;;;;;;;;;;22.70;47.50;;;;;;5137888;27;19923;-51
2021/12/25 15:05:56;;;;;;;;;;;22.70;47.60;;;;;;5137235;27;19930;-57
2021/12/25 15:08:23;;;;;;;;;;;22.70;47.50;;;;;;5137140;27;19949;-56
2021/12/25 15:10:51;;;;;;;;;;;22.70;47.50;;;;;;5137444;27;20361;-54
2021/12/25 15:13:21;;;;;;;;;;;22.70;47.50;;;;;;5117011;27;19924;-55
2021/12/25 15:15:56;;;;;;;;;;;22.70;47.50;;;;;;5116497;28;19977;-56
2021/12/25 15:18:24;;;;;;;;;;;22.70;47.50;;;;;;5116792;28;19969;-52
2021/12/25 15:21:06;;;;;;;;;;;22.70;47.60;;;;;;5116716;28;19931;-56
2021/12/25 15:23:34;;;;;;;;;;;22.70;47.60;;;;;;5116034;28;20337;-53
2021/12/25 15:26:04;;;;;;;;;;;22.70;47.60;;;;;;5116306;28;20452;-55
2021/12/25 15:28:31;;;;;;;;;;;22.70;47.60;;;;;;5115116;27;20268;-55
2021/12/25 15:31:01;;;;;;;;;;;22.70;47.60;;;;;;5116205;28;19923;-50
2021/12/25 15:33:28;;;;;;;;;;;22.70;47.60;;;;;;5116168;28;19923;-53
2021/12/25 15:35:55;;;;;;;;;;;22.70;47.60;;;;;;5116149;28;19924;-55
2021/12/25 15:38:26;;;;;;;;;;;22.70;47.60;;;;;;5116027;28;19992;-57
2021/12/25 15:40:53;;;;;;;;;;;22.70;47.60;;;;;;5116298;28;19924;-57
2021/12/25 15:43:21;;;;;;;;;;;22.70;47.60;;;;;;5114951;27;19940;-57